sensor_id;sensor_type;location;lat;lon;timestamp;P1;durP1;ratioP1;P2;durP2;ratioP2
73550;SDS011;61816;53.582;10.096;2023-07-29T00:01:49;10.68;;;6.82;;
73550;SDS011;61816;53.582;10.096;2023-07-29T00:04:14;9.98;;;6.70;;
73550;SDS011;61816;53.582;10.096;2023-07-29T00:06:40;12.85;;;6.70;;
73550;SDS011;61816;53.582;10.096;2023-07-29T00:09:05;13.77;;;7.68;;
73550;SDS011;61816;53.582;10.096;2023-07-29T00:11:31;10.65;;;6.72;;
73550;SDS011;61816;53.582;10.096;2023-07-29T00:13:58;8.77;;;6.28;;
73550;SDS011;61816;53.582;10.096;2023-07-29T00:16:25;12.45;;;7.85;;
73550;SDS011;61816;53.582;10.096;2023-07-29T00:18:51;10.25;;;6.65;;
73550;SDS011;61816;53.582;10.096;2023-07-29T00:21:16;9.35;;;6.90;;
73550;SDS011;61816;53.582;10.096;2023-07-29T00:23:42;10.70;;;6.93;;
73550;SDS011;61816;53.582;10.096;2023-07-29T00:26:07;11.80;;;6.35;;
73550;SDS011;61816;53.582;10.096;2023-07-29T00:28:32;13.93;;;7.35;;
73550;SDS011;61816;53.582;10.096;2023-07-29T00:30:58;10.50;;;6.85;;
73550;SDS011;61816;53.582;10.096;2023-07-29T00:33:23;10.90;;;6.80;;
73550;SDS011;61816;53.582;10.096;2023-07-29T00:35:48;10.38;;;6.88;;
73550;SDS011;61816;53.582;10.096;2023-07-29T00:38:14;10.23;;;6.57;;
73550;SDS011;61816;53.582;10.096;2023-07-29T00:40:39;13.95;;;7.57;;
73550;SDS011;61816;53.582;10.096;2023-07-29T00:43:04;12.98;;;6.97;;
73550;SDS011;61816;53.582;10.096;2023-07-29T00:45:30;7.88;;;6.05;;
73550;SDS011;61816;53.582;10.096;2023-07-29T00:47:57;12.90;;;7.18;;
73550;SDS011;61816;53.582;10.096;2023-07-29T00:50:22;12.68;;;6.53;;
73550;SDS011;61816;53.582;10.096;2023-07-29T00:52:48;11.68;;;6.35;;
73550;SDS011;61816;53.582;10.096;2023-07-29T00:55:14;16.25;;;8.10;;
73550;SDS011;61816;53.582;10.096;2023-07-29T00:57:39;10.02;;;6.88;;
73550;SDS011;61816;53.582;10.096;2023-07-29T01:00:07;11.23;;;6.72;;
73550;SDS011;61816;53.582;10.096;2023-07-29T01:02:33;15.80;;;7.63;;
73550;SDS011;61816;53.582;10.096;2023-07-29T01:05:00;10.23;;;7.03;;
73550;SDS011;61816;53.582;10.096;2023-07-29T01:10:17;13.13;;;7.65;;
73550;SDS011;61816;53.582;10.096;2023-07-29T01:13:01;10.63;;;7.22;;
73550;SDS011;61816;53.582;10.096;2023-07-29T01:15:46;10.48;;;6.40;;
73550;SDS011;61816;53.582;10.096;2023-07-29T01:18:20;13.80;;;7.55;;
73550;SDS011;61816;53.582;10.096;2023-07-29T01:20:48;15.68;;;6.97;;
73550;SDS011;61816;53.582;10.096;2023-07-29T01:23:23;13.10;;;7.32;;
73550;SDS011;61816;53.582;10.096;2023-07-29T01:25:49;12.68;;;8.00;;
73550;SDS011;61816;53.582;10.096;2023-07-29T01:28:14;10.98;;;7.63;;
73550;SDS011;61816;53.582;10.096;2023-07-29T01:30:40;14.85;;;8.20;;
73550;SDS011;61816;53.582;10.096;2023-07-29T01:33:19;10.73;;;7.13;;
73550;SDS011;61816;53.582;10.096;2023-07-29T01:35:50;10.80;;;7.50;;
73550;SDS011;61816;53.582;10.096;2023-07-29T01:38:24;11.10;;;7.38;;
73550;SDS011;61816;53.582;10.096;2023-07-29T01:40:56;14.77;;;7.15;;
73550;SDS011;61816;53.582;10.096;2023-07-29T01:43:33;10.23;;;6.65;;
73550;SDS011;61816;53.582;10.096;2023-07-29T01:46:00;11.43;;;6.80;;
73550;SDS011;61816;53.582;10.096;2023-07-29T01:48:26;11.60;;;8.45;;
73550;SDS011;61816;53.582;10.096;2023-07-29T01:50:52;13.20;;;8.20;;
73550;SDS011;61816;53.582;10.096;2023-07-29T01:53:18;11.23;;;7.35;;
73550;SDS011;61816;53.582;10.096;2023-07-29T01:55:43;9.65;;;7.18;;
73550;SDS011;61816;53.582;10.096;2023-07-29T01:58:09;10.48;;;7.28;;
73550;SDS011;61816;53.582;10.096;2023-07-29T02:00:35;13.75;;;8.60;;
73550;SDS011;61816;53.582;10.096;2023-07-29T02:03:00;25.10;;;9.73;;
73550;SDS011;61816;53.582;10.096;2023-07-29T02:05:26;30.13;;;15.02;;
73550;SDS011;61816;53.582;10.096;2023-07-29T02:07:51;23.98;;;15.13;;
73550;SDS011;61816;53.582;10.096;2023-07-29T02:10:17;23.88;;;14.93;;
73550;SDS011;61816;53.582;10.096;2023-07-29T02:12:42;23.20;;;14.43;;
73550;SDS011;61816;53.582;10.096;2023-07-29T02:15:08;35.35;;;18.70;;
73550;SDS011;61816;53.582;10.096;2023-07-29T02:17:34;39.53;;;18.95;;
73550;SDS011;61816;53.582;10.096;2023-07-29T02:20:00;25.98;;;16.13;;
73550;SDS011;61816;53.582;10.096;2023-07-29T02:22:25;26.88;;;14.85;;
73550;SDS011;61816;53.582;10.096;2023-07-29T02:24:50;23.88;;;14.68;;
73550;SDS011;61816;53.582;10.096;2023-07-29T02:27:16;22.27;;;13.68;;
73550;SDS011;61816;53.582;10.096;2023-07-29T02:29:41;28.15;;;15.95;;
73550;SDS011;61816;53.582;10.096;2023-07-29T02:32:07;23.92;;;14.90;;
73550;SDS011;61816;53.582;10.096;2023-07-29T02:34:32;27.38;;;15.57;;
73550;SDS011;61816;53.582;10.096;2023-07-29T02:36:57;22.08;;;13.50;;
73550;SDS011;61816;53.582;10.096;2023-07-29T02:39:23;20.17;;;12.35;;
73550;SDS011;61816;53.582;10.096;2023-07-29T02:41:49;22.48;;;14.27;;
73550;SDS011;61816;53.582;10.096;2023-07-29T02:44:14;36.85;;;18.02;;
73550;SDS011;61816;53.582;10.096;2023-07-29T02:46:40;20.55;;;13.23;;
73550;SDS011;61816;53.582;10.096;2023-07-29T02:49:06;29.45;;;15.13;;
73550;SDS011;61816;53.582;10.096;2023-07-29T02:51:31;33.05;;;17.35;;
73550;SDS011;61816;53.582;10.096;2023-07-29T02:53:56;24.73;;;13.75;;
73550;SDS011;61816;53.582;10.096;2023-07-29T02:56:22;32.17;;;17.52;;
73550;SDS011;61816;53.582;10.096;2023-07-29T02:58:47;29.27;;;17.63;;
73550;SDS011;61816;53.582;10.096;2023-07-29T03:01:12;17.88;;;13.63;;
73550;SDS011;61816;53.582;10.096;2023-07-29T03:03:39;24.70;;;15.75;;
73550;SDS011;61816;53.582;10.096;2023-07-29T03:06:06;32.15;;;18.10;;
73550;SDS011;61816;53.582;10.096;2023-07-29T03:08:33;25.52;;;16.33;;
73550;SDS011;61816;53.582;10.096;2023-07-29T03:10:58;28.48;;;16.95;;
73550;SDS011;61816;53.582;10.096;2023-07-29T03:13:29;36.85;;;19.90;;
73550;SDS011;61816;53.582;10.096;2023-07-29T03:15:55;36.08;;;21.10;;
73550;SDS011;61816;53.582;10.096;2023-07-29T03:18:29;33.10;;;20.45;;
73550;SDS011;61816;53.582;10.096;2023-07-29T03:20:55;45.63;;;24.42;;
73550;SDS011;61816;53.582;10.096;2023-07-29T03:23:21;40.78;;;19.52;;
73550;SDS011;61816;53.582;10.096;2023-07-29T03:25:48;36.95;;;21.77;;
73550;SDS011;61816;53.582;10.096;2023-07-29T03:28:16;47.20;;;24.02;;
73550;SDS011;61816;53.582;10.096;2023-07-29T03:30:41;51.85;;;23.25;;
73550;SDS011;61816;53.582;10.096;2023-07-29T03:33:07;31.83;;;18.67;;
73550;SDS011;61816;53.582;10.096;2023-07-29T03:35:32;50.63;;;24.35;;
73550;SDS011;61816;53.582;10.096;2023-07-29T03:37:58;49.97;;;23.77;;
73550;SDS011;61816;53.582;10.096;2023-07-29T03:40:23;53.38;;;25.67;;
73550;SDS011;61816;53.582;10.096;2023-07-29T03:42:48;42.35;;;23.60;;
73550;SDS011;61816;53.582;10.096;2023-07-29T03:45:14;46.42;;;23.50;;
73550;SDS011;61816;53.582;10.096;2023-07-29T03:47:40;51.03;;;25.45;;
73550;SDS011;61816;53.582;10.096;2023-07-29T03:50:05;59.63;;;28.90;;
73550;SDS011;61816;53.582;10.096;2023-07-29T03:52:31;43.65;;;23.38;;
73550;SDS011;61816;53.582;10.096;2023-07-29T03:54:56;37.92;;;22.15;;
73550;SDS011;61816;53.582;10.096;2023-07-29T03:57:21;53.72;;;26.10;;
73550;SDS011;61816;53.582;10.096;2023-07-29T03:59:47;55.17;;;26.13;;
73550;SDS011;61816;53.582;10.096;2023-07-29T04:02:12;28.58;;;18.95;;
73550;SDS011;61816;53.582;10.096;2023-07-29T04:04:38;46.40;;;25.65;;
73550;SDS011;61816;53.582;10.096;2023-07-29T04:07:03;43.88;;;24.05;;
73550;SDS011;61816;53.582;10.096;2023-07-29T04:09:29;56.78;;;30.20;;
73550;SDS011;61816;53.582;10.096;2023-07-29T04:11:54;61.03;;;29.42;;
73550;SDS011;61816;53.582;10.096;2023-07-29T04:14:20;71.47;;;33.83;;
73550;SDS011;61816;53.582;10.096;2023-07-29T04:16:45;61.30;;;33.28;;
73550;SDS011;61816;53.582;10.096;2023-07-29T04:19:10;70.40;;;35.45;;
73550;SDS011;61816;53.582;10.096;2023-07-29T04:21:36;87.88;;;38.88;;
73550;SDS011;61816;53.582;10.096;2023-07-29T04:24:01;68.72;;;34.25;;
73550;SDS011;61816;53.582;10.096;2023-07-29T04:26:27;74.65;;;37.15;;
73550;SDS011;61816;53.582;10.096;2023-07-29T04:28:52;63.95;;;32.75;;
73550;SDS011;61816;53.582;10.096;2023-07-29T04:31:18;63.13;;;32.65;;
73550;SDS011;61816;53.582;10.096;2023-07-29T04:33:43;57.28;;;31.70;;
73550;SDS011;61816;53.582;10.096;2023-07-29T04:36:08;63.95;;;34.58;;
73550;SDS011;61816;53.582;10.096;2023-07-29T04:38:34;80.40;;;40.17;;
73550;SDS011;61816;53.582;10.096;2023-07-29T04:41:02;74.18;;;38.53;;
73550;SDS011;61816;53.582;10.096;2023-07-29T04:43:28;65.15;;;37.13;;
73550;SDS011;61816;53.582;10.096;2023-07-29T04:45:55;60.65;;;36.03;;
73550;SDS011;61816;53.582;10.096;2023-07-29T04:48:21;84.35;;;41.22;;
73550;SDS011;61816;53.582;10.096;2023-07-29T04:50:46;87.65;;;45.55;;
73550;SDS011;61816;53.582;10.096;2023-07-29T04:53:12;75.25;;;41.97;;
73550;SDS011;61816;53.582;10.096;2023-07-29T04:55:37;89.00;;;45.90;;
73550;SDS011;61816;53.582;10.096;2023-07-29T04:58:03;91.70;;;45.40;;
73550;SDS011;61816;53.582;10.096;2023-07-29T05:00:28;75.43;;;40.60;;
73550;SDS011;61816;53.582;10.096;2023-07-29T05:02:53;84.43;;;44.08;;
73550;SDS011;61816;53.582;10.096;2023-07-29T05:05:18;79.57;;;43.65;;
73550;SDS011;61816;53.582;10.096;2023-07-29T05:07:44;84.40;;;42.75;;
73550;SDS011;61816;53.582;10.096;2023-07-29T05:10:09;85.20;;;44.25;;
73550;SDS011;61816;53.582;10.096;2023-07-29T05:12:34;90.05;;;46.03;;
73550;SDS011;61816;53.582;10.096;2023-07-29T05:15:00;98.07;;;48.75;;
73550;SDS011;61816;53.582;10.096;2023-07-29T05:17:25;85.53;;;47.45;;
73550;SDS011;61816;53.582;10.096;2023-07-29T05:19:50;97.78;;;50.65;;
73550;SDS011;61816;53.582;10.096;2023-07-29T05:22:16;89.32;;;46.55;;
73550;SDS011;61816;53.582;10.096;2023-07-29T05:24:41;92.40;;;50.17;;
73550;SDS011;61816;53.582;10.096;2023-07-29T05:27:07;81.85;;;47.45;;
73550;SDS011;61816;53.582;10.096;2023-07-29T05:29:33;98.00;;;51.40;;
73550;SDS011;61816;53.582;10.096;2023-07-29T05:31:59;86.05;;;48.65;;
73550;SDS011;61816;53.582;10.096;2023-07-29T05:34:24;90.45;;;50.50;;
73550;SDS011;61816;53.582;10.096;2023-07-29T05:36:49;80.05;;;48.42;;
73550;SDS011;61816;53.582;10.096;2023-07-29T05:39:15;78.50;;;49.20;;
73550;SDS011;61816;53.582;10.096;2023-07-29T05:41:40;83.00;;;51.33;;
73550;SDS011;61816;53.582;10.096;2023-07-29T05:44:05;80.40;;;49.25;;
73550;SDS011;61816;53.582;10.096;2023-07-29T05:46:31;86.47;;;51.63;;
73550;SDS011;61816;53.582;10.096;2023-07-29T05:48:56;92.90;;;54.60;;
73550;SDS011;61816;53.582;10.096;2023-07-29T05:51:21;82.15;;;47.42;;
73550;SDS011;61816;53.582;10.096;2023-07-29T05:53:47;90.68;;;53.40;;
73550;SDS011;61816;53.582;10.096;2023-07-29T05:56:12;82.93;;;51.05;;
73550;SDS011;61816;53.582;10.096;2023-07-29T05:58:38;79.32;;;50.28;;
73550;SDS011;61816;53.582;10.096;2023-07-29T06:01:03;78.90;;;50.05;;
73550;SDS011;61816;53.582;10.096;2023-07-29T06:03:28;80.53;;;51.47;;
73550;SDS011;61816;53.582;10.096;2023-07-29T06:05:54;86.38;;;51.88;;
73550;SDS011;61816;53.582;10.096;2023-07-29T06:08:19;93.97;;;56.35;;
73550;SDS011;61816;53.582;10.096;2023-07-29T06:10:45;74.85;;;50.13;;
73550;SDS011;61816;53.582;10.096;2023-07-29T06:13:10;93.78;;;57.17;;
73550;SDS011;61816;53.582;10.096;2023-07-29T06:15:35;91.85;;;53.45;;
73550;SDS011;61816;53.582;10.096;2023-07-29T06:18:01;77.25;;;46.58;;
73550;SDS011;61816;53.582;10.096;2023-07-29T06:20:26;74.45;;;48.53;;
73550;SDS011;61816;53.582;10.096;2023-07-29T06:22:51;60.13;;;40.38;;
73550;SDS011;61816;53.582;10.096;2023-07-29T06:25:17;58.60;;;39.10;;
73550;SDS011;61816;53.582;10.096;2023-07-29T06:27:42;54.97;;;38.28;;
73550;SDS011;61816;53.582;10.096;2023-07-29T06:30:08;50.58;;;34.35;;
73550;SDS011;61816;53.582;10.096;2023-07-29T06:32:33;52.80;;;36.72;;
73550;SDS011;61816;53.582;10.096;2023-07-29T06:34:59;53.03;;;33.72;;
73550;SDS011;61816;53.582;10.096;2023-07-29T06:37:25;48.55;;;33.65;;
73550;SDS011;61816;53.582;10.096;2023-07-29T06:39:50;40.22;;;29.85;;
73550;SDS011;61816;53.582;10.096;2023-07-29T06:42:16;45.38;;;30.48;;
73550;SDS011;61816;53.582;10.096;2023-07-29T06:44:41;48.20;;;33.15;;
73550;SDS011;61816;53.582;10.096;2023-07-29T06:47:06;41.40;;;29.88;;
73550;SDS011;61816;53.582;10.096;2023-07-29T06:49:32;44.75;;;29.55;;
73550;SDS011;61816;53.582;10.096;2023-07-29T06:51:57;43.83;;;30.92;;
73550;SDS011;61816;53.582;10.096;2023-07-29T06:54:25;39.08;;;27.60;;
73550;SDS011;61816;53.582;10.096;2023-07-29T06:56:51;40.35;;;26.63;;
73550;SDS011;61816;53.582;10.096;2023-07-29T06:59:17;42.25;;;27.98;;
73550;SDS011;61816;53.582;10.096;2023-07-29T07:01:42;29.50;;;24.33;;
73550;SDS011;61816;53.582;10.096;2023-07-29T07:04:08;29.33;;;19.90;;
73550;SDS011;61816;53.582;10.096;2023-07-29T07:06:33;44.70;;;30.55;;
73550;SDS011;61816;53.582;10.096;2023-07-29T07:08:58;39.45;;;29.77;;
73550;SDS011;61816;53.582;10.096;2023-07-29T07:11:24;50.63;;;31.33;;
73550;SDS011;61816;53.582;10.096;2023-07-29T07:13:49;33.25;;;25.17;;
73550;SDS011;61816;53.582;10.096;2023-07-29T07:16:14;42.40;;;30.80;;
73550;SDS011;61816;53.582;10.096;2023-07-29T07:18:40;45.35;;;31.40;;
73550;SDS011;61816;53.582;10.096;2023-07-29T07:21:05;47.15;;;31.65;;
73550;SDS011;61816;53.582;10.096;2023-07-29T07:23:31;50.00;;;31.63;;
73550;SDS011;61816;53.582;10.096;2023-07-29T07:25:56;44.20;;;28.52;;
73550;SDS011;61816;53.582;10.096;2023-07-29T07:28:21;36.85;;;26.13;;
73550;SDS011;61816;53.582;10.096;2023-07-29T07:30:47;48.80;;;30.80;;
73550;SDS011;61816;53.582;10.096;2023-07-29T07:33:12;46.05;;;30.45;;
73550;SDS011;61816;53.582;10.096;2023-07-29T07:35:40;41.72;;;27.30;;
73550;SDS011;61816;53.582;10.096;2023-07-29T07:38:07;46.78;;;29.48;;
73550;SDS011;61816;53.582;10.096;2023-07-29T07:40:34;34.45;;;22.38;;
73550;SDS011;61816;53.582;10.096;2023-07-29T07:43:00;38.95;;;28.25;;
73550;SDS011;61816;53.582;10.096;2023-07-29T07:45:26;43.55;;;27.13;;
73550;SDS011;61816;53.582;10.096;2023-07-29T07:47:55;42.40;;;28.00;;
73550;SDS011;61816;53.582;10.096;2023-07-29T07:50:21;34.00;;;22.02;;
73550;SDS011;61816;53.582;10.096;2023-07-29T07:52:46;37.53;;;23.88;;
73550;SDS011;61816;53.582;10.096;2023-07-29T07:55:12;37.05;;;26.95;;
73550;SDS011;61816;53.582;10.096;2023-07-29T07:57:37;38.75;;;26.15;;
73550;SDS011;61816;53.582;10.096;2023-07-29T08:00:03;41.42;;;26.75;;
73550;SDS011;61816;53.582;10.096;2023-07-29T08:02:29;43.60;;;26.58;;
73550;SDS011;61816;53.582;10.096;2023-07-29T08:04:55;30.98;;;22.77;;
73550;SDS011;61816;53.582;10.096;2023-07-29T08:07:20;38.35;;;23.60;;
73550;SDS011;61816;53.582;10.096;2023-07-29T08:09:46;34.30;;;22.90;;
73550;SDS011;61816;53.582;10.096;2023-07-29T08:12:11;30.30;;;21.23;;
73550;SDS011;61816;53.582;10.096;2023-07-29T08:14:36;32.85;;;22.50;;
73550;SDS011;61816;53.582;10.096;2023-07-29T08:17:02;30.50;;;21.30;;
73550;SDS011;61816;53.582;10.096;2023-07-29T08:19:28;31.02;;;22.80;;
73550;SDS011;61816;53.582;10.096;2023-07-29T08:21:53;28.02;;;20.70;;
73550;SDS011;61816;53.582;10.096;2023-07-29T08:24:18;27.67;;;19.50;;
73550;SDS011;61816;53.582;10.096;2023-07-29T08:26:44;28.83;;;19.85;;
73550;SDS011;61816;53.582;10.096;2023-07-29T08:29:09;30.63;;;19.63;;
73550;SDS011;61816;53.582;10.096;2023-07-29T08:31:34;24.17;;;18.25;;
73550;SDS011;61816;53.582;10.096;2023-07-29T08:34:00;23.40;;;17.63;;
73550;SDS011;61816;53.582;10.096;2023-07-29T08:36:25;21.92;;;17.48;;
73550;SDS011;61816;53.582;10.096;2023-07-29T08:38:51;20.67;;;15.07;;
73550;SDS011;61816;53.582;10.096;2023-07-29T08:41:21;23.88;;;15.13;;
73550;SDS011;61816;53.582;10.096;2023-07-29T08:44:16;20.98;;;15.23;;
73550;SDS011;61816;53.582;10.096;2023-07-29T08:46:46;23.90;;;16.10;;
73550;SDS011;61816;53.582;10.096;2023-07-29T08:49:11;26.80;;;16.05;;
73550;SDS011;61816;53.582;10.096;2023-07-29T08:51:38;19.58;;;15.25;;
73550;SDS011;61816;53.582;10.096;2023-07-29T08:54:08;18.10;;;14.73;;
73550;SDS011;61816;53.582;10.096;2023-07-29T08:56:35;22.42;;;16.45;;
73550;SDS011;61816;53.582;10.096;2023-07-29T08:59:01;19.05;;;15.27;;
73550;SDS011;61816;53.582;10.096;2023-07-29T09:01:27;21.02;;;17.45;;
73550;SDS011;61816;53.582;10.096;2023-07-29T09:03:53;21.23;;;15.80;;
73550;SDS011;61816;53.582;10.096;2023-07-29T09:06:18;21.40;;;16.48;;
73550;SDS011;61816;53.582;10.096;2023-07-29T09:08:48;22.73;;;15.35;;
73550;SDS011;61816;53.582;10.096;2023-07-29T09:11:41;23.40;;;16.58;;
73550;SDS011;61816;53.582;10.096;2023-07-29T09:14:10;28.67;;;16.23;;
73550;SDS011;61816;53.582;10.096;2023-07-29T09:16:38;21.10;;;17.13;;
73550;SDS011;61816;53.582;10.096;2023-07-29T09:19:03;22.23;;;16.30;;
73550;SDS011;61816;53.582;10.096;2023-07-29T09:21:29;22.35;;;16.65;;
73550;SDS011;61816;53.582;10.096;2023-07-29T09:23:55;23.33;;;17.13;;
73550;SDS011;61816;53.582;10.096;2023-07-29T09:26:28;24.05;;;17.05;;
73550;SDS011;61816;53.582;10.096;2023-07-29T09:28:57;20.98;;;15.88;;
73550;SDS011;61816;53.582;10.096;2023-07-29T09:31:24;20.25;;;14.80;;
73550;SDS011;61816;53.582;10.096;2023-07-29T09:34:01;25.77;;;15.48;;
73550;SDS011;61816;53.582;10.096;2023-07-29T09:36:31;21.35;;;15.38;;
73550;SDS011;61816;53.582;10.096;2023-07-29T09:38:57;21.08;;;13.65;;
73550;SDS011;61816;53.582;10.096;2023-07-29T09:41:24;17.75;;;13.40;;
73550;SDS011;61816;53.582;10.096;2023-07-29T09:43:57;15.93;;;11.25;;
73550;SDS011;61816;53.582;10.096;2023-07-29T09:46:24;16.73;;;10.95;;
73550;SDS011;61816;53.582;10.096;2023-07-29T09:48:55;15.27;;;11.35;;
73550;SDS011;61816;53.582;10.096;2023-07-29T09:51:21;17.95;;;13.52;;
73550;SDS011;61816;53.582;10.096;2023-07-29T09:53:47;15.43;;;10.90;;
73550;SDS011;61816;53.582;10.096;2023-07-29T09:56:13;14.27;;;10.63;;
73550;SDS011;61816;53.582;10.096;2023-07-29T09:58:39;19.48;;;11.05;;
73550;SDS011;61816;53.582;10.096;2023-07-29T10:01:08;13.68;;;11.57;;
73550;SDS011;61816;53.582;10.096;2023-07-29T10:03:34;16.17;;;11.50;;
73550;SDS011;61816;53.582;10.096;2023-07-29T10:06:05;17.83;;;12.00;;
73550;SDS011;61816;53.582;10.096;2023-07-29T10:08:31;15.75;;;11.65;;
73550;SDS011;61816;53.582;10.096;2023-07-29T10:11:01;18.75;;;9.25;;
73550;SDS011;61816;53.582;10.096;2023-07-29T10:13:27;12.63;;;7.80;;
73550;SDS011;61816;53.582;10.096;2023-07-29T10:15:53;12.23;;;8.50;;
73550;SDS011;61816;53.582;10.096;2023-07-29T10:18:20;7.97;;;6.00;;
73550;SDS011;61816;53.582;10.096;2023-07-29T10:20:46;8.35;;;7.05;;
73550;SDS011;61816;53.582;10.096;2023-07-29T10:23:15;10.00;;;7.57;;
73550;SDS011;61816;53.582;10.096;2023-07-29T10:25:43;9.18;;;6.63;;
73550;SDS011;61816;53.582;10.096;2023-07-29T10:28:12;12.05;;;6.70;;
73550;SDS011;61816;53.582;10.096;2023-07-29T10:30:40;13.68;;;7.68;;
73550;SDS011;61816;53.582;10.096;2023-07-29T10:33:06;8.20;;;6.57;;
73550;SDS011;61816;53.582;10.096;2023-07-29T10:35:32;12.40;;;6.35;;
73550;SDS011;61816;53.582;10.096;2023-07-29T10:37:58;7.00;;;5.43;;
73550;SDS011;61816;53.582;10.096;2023-07-29T10:40:24;7.60;;;5.07;;
73550;SDS011;61816;53.582;10.096;2023-07-29T10:43:02;11.57;;;5.57;;
73550;SDS011;61816;53.582;10.096;2023-07-29T10:45:37;7.07;;;5.00;;
73550;SDS011;61816;53.582;10.096;2023-07-29T10:48:10;7.18;;;5.07;;
73550;SDS011;61816;53.582;10.096;2023-07-29T10:50:36;6.38;;;4.65;;
73550;SDS011;61816;53.582;10.096;2023-07-29T10:53:02;6.80;;;4.75;;
73550;SDS011;61816;53.582;10.096;2023-07-29T10:55:34;9.48;;;4.57;;
73550;SDS011;61816;53.582;10.096;2023-07-29T11:00:33;9.63;;;4.90;;
73550;SDS011;61816;53.582;10.096;2023-07-29T11:03:00;9.63;;;4.85;;
73550;SDS011;61816;53.582;10.096;2023-07-29T11:08:26;10.40;;;4.88;;
73550;SDS011;61816;53.582;10.096;2023-07-29T11:13:29;8.25;;;4.10;;
73550;SDS011;61816;53.582;10.096;2023-07-29T11:15:55;8.02;;;4.80;;
73550;SDS011;61816;53.582;10.096;2023-07-29T11:18:23;10.52;;;4.00;;
73550;SDS011;61816;53.582;10.096;2023-07-29T11:20:53;4.70;;;3.90;;
73550;SDS011;61816;53.582;10.096;2023-07-29T11:23:19;7.85;;;3.67;;
73550;SDS011;61816;53.582;10.096;2023-07-29T11:25:44;4.82;;;3.40;;
73550;SDS011;61816;53.582;10.096;2023-07-29T11:28:10;12.68;;;4.07;;
73550;SDS011;61816;53.582;10.096;2023-07-29T11:30:38;8.50;;;3.70;;
73550;SDS011;61816;53.582;10.096;2023-07-29T11:33:04;5.68;;;4.30;;
73550;SDS011;61816;53.582;10.096;2023-07-29T11:35:29;5.70;;;3.30;;
73550;SDS011;61816;53.582;10.096;2023-07-29T11:37:57;7.53;;;3.20;;
73550;SDS011;61816;53.582;10.096;2023-07-29T11:40:22;7.18;;;3.00;;
73550;SDS011;61816;53.582;10.096;2023-07-29T11:42:49;4.80;;;3.15;;
73550;SDS011;61816;53.582;10.096;2023-07-29T11:45:16;3.83;;;3.15;;
73550;SDS011;61816;53.582;10.096;2023-07-29T11:47:42;7.82;;;3.47;;
73550;SDS011;61816;53.582;10.096;2023-07-29T11:50:08;4.10;;;3.10;;
73550;SDS011;61816;53.582;10.096;2023-07-29T11:52:36;6.03;;;3.20;;
73550;SDS011;61816;53.582;10.096;2023-07-29T11:55:03;3.58;;;2.85;;
73550;SDS011;61816;53.582;10.096;2023-07-29T11:57:36;5.88;;;4.28;;
73550;SDS011;61816;53.582;10.096;2023-07-29T12:00:03;7.93;;;3.92;;
73550;SDS011;61816;53.582;10.096;2023-07-29T12:02:31;4.60;;;3.72;;
73550;SDS011;61816;53.582;10.096;2023-07-29T12:04:58;5.70;;;3.60;;
73550;SDS011;61816;53.582;10.096;2023-07-29T12:07:24;6.65;;;3.65;;
73550;SDS011;61816;53.582;10.096;2023-07-29T12:09:49;4.97;;;3.78;;
73550;SDS011;61816;53.582;10.096;2023-07-29T12:12:15;5.75;;;2.97;;
73550;SDS011;61816;53.582;10.096;2023-07-29T12:14:45;7.82;;;3.80;;
73550;SDS011;61816;53.582;10.096;2023-07-29T12:17:11;5.30;;;3.63;;
73550;SDS011;61816;53.582;10.096;2023-07-29T12:19:38;5.90;;;4.10;;
73550;SDS011;61816;53.582;10.096;2023-07-29T12:22:07;5.70;;;3.75;;
73550;SDS011;61816;53.582;10.096;2023-07-29T12:24:35;5.38;;;3.63;;
73550;SDS011;61816;53.582;10.096;2023-07-29T12:27:02;5.07;;;3.35;;
73550;SDS011;61816;53.582;10.096;2023-07-29T12:29:27;3.33;;;3.00;;
73550;SDS011;61816;53.582;10.096;2023-07-29T12:31:57;4.05;;;3.25;;
73550;SDS011;61816;53.582;10.096;2023-07-29T12:34:25;3.22;;;2.88;;
73550;SDS011;61816;53.582;10.096;2023-07-29T12:36:52;4.68;;;2.58;;
73550;SDS011;61816;53.582;10.096;2023-07-29T12:39:19;3.25;;;2.85;;
73550;SDS011;61816;53.582;10.096;2023-07-29T12:41:46;3.70;;;2.75;;
73550;SDS011;61816;53.582;10.096;2023-07-29T12:44:12;3.58;;;2.58;;
73550;SDS011;61816;53.582;10.096;2023-07-29T12:46:37;4.22;;;2.83;;
73550;SDS011;61816;53.582;10.096;2023-07-29T12:49:06;4.18;;;2.25;;
73550;SDS011;61816;53.582;10.096;2023-07-29T12:51:32;5.30;;;2.60;;
73550;SDS011;61816;53.582;10.096;2023-07-29T12:53:57;3.08;;;2.15;;
73550;SDS011;61816;53.582;10.096;2023-07-29T12:56:23;3.38;;;2.25;;
73550;SDS011;61816;53.582;10.096;2023-07-29T12:58:48;4.15;;;2.15;;
73550;SDS011;61816;53.582;10.096;2023-07-29T13:01:14;2.25;;;1.80;;
73550;SDS011;61816;53.582;10.096;2023-07-29T13:03:43;4.03;;;2.13;;
73550;SDS011;61816;53.582;10.096;2023-07-29T13:06:11;5.07;;;1.77;;
73550;SDS011;61816;53.582;10.096;2023-07-29T13:08:36;3.08;;;1.92;;
73550;SDS011;61816;53.582;10.096;2023-07-29T13:11:02;3.75;;;2.47;;
73550;SDS011;61816;53.582;10.096;2023-07-29T13:13:28;4.28;;;1.85;;
73550;SDS011;61816;53.582;10.096;2023-07-29T13:15:54;2.92;;;2.10;;
73550;SDS011;61816;53.582;10.096;2023-07-29T13:18:20;3.15;;;1.95;;
73550;SDS011;61816;53.582;10.096;2023-07-29T13:20:46;3.40;;;1.88;;
73550;SDS011;61816;53.582;10.096;2023-07-29T13:23:12;2.58;;;2.03;;
73550;SDS011;61816;53.582;10.096;2023-07-29T13:25:37;4.30;;;2.30;;
73550;SDS011;61816;53.582;10.096;2023-07-29T13:28:02;2.92;;;1.98;;
73550;SDS011;61816;53.582;10.096;2023-07-29T13:30:28;3.17;;;2.35;;
73550;SDS011;61816;53.582;10.096;2023-07-29T13:32:54;5.10;;;1.98;;
73550;SDS011;61816;53.582;10.096;2023-07-29T13:35:19;4.22;;;2.38;;
73550;SDS011;61816;53.582;10.096;2023-07-29T13:37:44;3.17;;;2.00;;
73550;SDS011;61816;53.582;10.096;2023-07-29T13:40:10;4.40;;;2.17;;
73550;SDS011;61816;53.582;10.096;2023-07-29T13:42:35;3.22;;;2.10;;
73550;SDS011;61816;53.582;10.096;2023-07-29T13:45:01;3.45;;;2.20;;
73550;SDS011;61816;53.582;10.096;2023-07-29T13:47:27;2.13;;;1.92;;
73550;SDS011;61816;53.582;10.096;2023-07-29T13:49:53;3.45;;;2.10;;
73550;SDS011;61816;53.582;10.096;2023-07-29T13:52:18;3.38;;;2.13;;
73550;SDS011;61816;53.582;10.096;2023-07-29T13:54:43;4.75;;;2.22;;
73550;SDS011;61816;53.582;10.096;2023-07-29T13:57:09;4.78;;;2.03;;
73550;SDS011;61816;53.582;10.096;2023-07-29T13:59:35;5.68;;;2.53;;
73550;SDS011;61816;53.582;10.096;2023-07-29T14:02:04;2.90;;;1.85;;
73550;SDS011;61816;53.582;10.096;2023-07-29T14:04:33;4.55;;;2.42;;
73550;SDS011;61816;53.582;10.096;2023-07-29T14:06:58;2.28;;;2.03;;
73550;SDS011;61816;53.582;10.096;2023-07-29T14:09:24;4.32;;;2.35;;
73550;SDS011;61816;53.582;10.096;2023-07-29T14:11:50;3.38;;;2.20;;
73550;SDS011;61816;53.582;10.096;2023-07-29T14:14:15;8.52;;;2.30;;
73550;SDS011;61816;53.582;10.096;2023-07-29T14:16:41;3.70;;;2.00;;
73550;SDS011;61816;53.582;10.096;2023-07-29T14:19:08;3.60;;;2.30;;
73550;SDS011;61816;53.582;10.096;2023-07-29T14:21:33;3.75;;;1.90;;
73550;SDS011;61816;53.582;10.096;2023-07-29T14:23:58;3.17;;;2.10;;
73550;SDS011;61816;53.582;10.096;2023-07-29T14:26:24;6.13;;;2.63;;